createdAt,value
2023-05-05T00:00:13.038Z,95011.00
2023-05-05T00:01:13.089Z,95007.00
2023-05-05T00:02:13.223Z,95007.00
2023-05-05T00:03:13.202Z,95009.00
2023-05-05T00:04:13.205Z,95005.00
2023-05-05T00:05:13.181Z,95009.00
2023-05-05T00:06:13.631Z,95009.00
2023-05-05T00:07:13.271Z,95009.00
2023-05-05T00:08:13.358Z,95011.00
2023-05-05T00:09:13.434Z,95009.00
2023-05-05T00:10:13.443Z,95009.00
2023-05-05T00:11:13.555Z,95009.00
2023-05-05T00:12:13.517Z,95011.00
2023-05-05T00:13:13.700Z,95009.00
2023-05-05T00:14:13.631Z,95009.00
2023-05-05T00:15:13.689Z,95011.00
2023-05-05T00:16:13.747Z,95007.00
2023-05-05T00:17:13.827Z,95009.00
2023-05-05T00:18:13.832Z,95009.00
2023-05-05T00:19:13.847Z,95011.00
2023-05-05T00:20:13.895Z,95009.00
2023-05-05T00:21:13.880Z,95013.00
2023-05-05T00:22:13.898Z,95011.00
2023-05-05T00:23:13.925Z,95009.00
2023-05-05T00:24:13.990Z,95009.00
2023-05-05T00:25:13.985Z,95009.00
2023-05-05T00:26:14.006Z,95011.00
2023-05-05T00:27:14.016Z,95011.00
2023-05-05T00:28:14.050Z,95009.00
2023-05-05T00:29:14.028Z,95011.00
2023-05-05T00:30:14.076Z,95015.00
2023-05-05T00:31:14.246Z,95013.00
2023-05-05T00:32:14.147Z,95013.00
2023-05-05T00:33:14.140Z,95013.00
2023-05-05T00:34:14.157Z,95015.00
2023-05-05T00:35:14.172Z,95015.00
2023-05-05T00:36:14.213Z,95015.00
2023-05-05T00:37:14.166Z,95015.00
2023-05-05T00:38:14.180Z,95015.00
2023-05-05T00:39:14.156Z,95013.00
2023-05-05T00:40:14.188Z,95011.00
2023-05-05T00:41:14.219Z,95015.00
2023-05-05T00:42:14.219Z,95015.00
2023-05-05T00:43:14.218Z,95015.00
2023-05-05T00:44:14.350Z,95013.00
2023-05-05T00:45:14.322Z,95017.00
2023-05-05T00:46:14.406Z,95015.00
2023-05-05T00:47:14.405Z,95013.00
2023-05-05T00:48:14.473Z,95019.00
2023-05-05T00:49:14.532Z,95019.00
2023-05-05T00:50:14.476Z,95017.00
2023-05-05T00:51:14.580Z,95025.00
2023-05-05T00:52:14.593Z,95021.00
2023-05-05T00:53:14.663Z,95021.00
2023-05-05T00:54:14.665Z,95019.00
2023-05-05T00:55:14.698Z,95021.00
2023-05-05T00:56:14.711Z,95017.00
2023-05-05T00:57:14.789Z,95017.00
2023-05-05T00:58:14.870Z,95017.00
2023-05-05T00:59:14.820Z,95019.00
2023-05-05T01:00:14.880Z,95015.00
2023-05-05T01:01:14.994Z,95017.00
2023-05-05T01:02:15.010Z,95015.00
2023-05-05T01:03:15.031Z,95017.00
2023-05-05T01:04:15.030Z,95013.00
2023-05-05T01:05:15.113Z,95015.00
2023-05-05T01:06:15.122Z,95011.00
2023-05-05T01:07:15.052Z,95011.00
2023-05-05T01:08:15.118Z,95007.00
2023-05-05T01:09:15.186Z,95011.00
2023-05-05T01:10:20.239Z,95009.00
2023-05-05T01:11:16.184Z,95011.00
2023-05-05T01:12:15.625Z,95013.00
2023-05-05T01:13:15.236Z,95011.00
2023-05-05T01:14:15.147Z,95011.00
2023-05-05T01:15:15.192Z,95009.00
2023-05-05T01:16:15.182Z,95009.00
2023-05-05T01:17:15.161Z,95011.00
2023-05-05T01:18:15.121Z,95009.00
2023-05-05T01:19:15.150Z,95009.00
2023-05-05T01:20:15.160Z,95013.00
2023-05-05T01:21:15.131Z,95011.00
2023-05-05T01:22:15.163Z,95015.00
2023-05-05T01:23:15.268Z,95015.00
2023-05-05T01:24:15.135Z,95015.00
2023-05-05T01:25:15.102Z,95011.00
2023-05-05T01:26:15.127Z,95013.00
2023-05-05T01:27:15.644Z,95011.00
2023-05-05T01:28:15.212Z,95013.00
2023-05-05T01:29:15.243Z,95015.00
2023-05-05T01:30:15.240Z,95015.00
2023-05-05T01:31:15.358Z,95019.00
2023-05-05T01:32:15.337Z,95017.00
2023-05-05T01:33:15.337Z,95019.00
2023-05-05T01:34:15.379Z,95017.00
2023-05-05T01:35:15.395Z,95017.00
2023-05-05T01:36:15.396Z,95017.00
2023-05-05T01:37:15.475Z,95019.00
2023-05-05T01:38:15.498Z,95019.00
2023-05-05T01:39:15.552Z,95021.00
2023-05-05T01:40:15.565Z,95019.00
2023-05-05T01:41:15.559Z,95019.00
2023-05-05T01:42:15.603Z,95021.00
2023-05-05T01:43:15.592Z,95021.00
2023-05-05T01:44:15.577Z,95019.00
2023-05-05T01:45:15.646Z,95021.00
2023-05-05T01:46:15.762Z,95021.00
2023-05-05T01:47:16.113Z,95019.00
2023-05-05T01:48:15.840Z,95019.00
2023-05-05T01:49:15.910Z,95021.00
2023-05-05T01:50:15.932Z,95023.00
2023-05-05T01:51:15.953Z,95021.00
2023-05-05T01:52:16.008Z,95019.00
2023-05-05T01:53:16.021Z,95021.00
2023-05-05T01:54:16.070Z,95019.00
2023-05-05T01:55:16.100Z,95019.00
2023-05-05T01:56:16.132Z,95021.00
2023-05-05T01:57:16.146Z,95023.00
2023-05-05T01:58:16.186Z,95023.00
2023-05-05T01:59:16.215Z,95025.00
2023-05-05T02:00:17.153Z,95027.00
2023-05-05T02:01:16.309Z,95025.00
2023-05-05T02:02:16.345Z,95025.00
2023-05-05T02:03:16.401Z,95025.00
2023-05-05T02:04:16.346Z,95023.00
2023-05-05T02:05:16.417Z,95023.00
2023-05-05T02:06:16.469Z,95025.00
2023-05-05T02:07:16.449Z,95023.00
2023-05-05T02:08:16.628Z,95027.00
2023-05-05T02:09:16.576Z,95029.00
2023-05-05T02:10:16.599Z,95029.00
2023-05-05T02:11:16.681Z,95031.00
2023-05-05T02:12:16.711Z,95031.00
2023-05-05T02:13:16.862Z,95031.00
2023-05-05T02:14:16.717Z,95031.00
2023-05-05T02:15:16.742Z,95029.00
2023-05-05T02:16:16.974Z,95033.00
2023-05-05T02:17:16.842Z,95036.00
2023-05-05T02:18:16.848Z,95036.00
2023-05-05T02:19:16.930Z,95040.00
2023-05-05T02:20:16.961Z,95044.00
2023-05-05T02:21:16.964Z,95046.00
2023-05-05T02:22:17.010Z,95044.00
2023-05-05T02:23:16.980Z,95048.00
2023-05-05T02:24:17.008Z,95050.00
2023-05-05T02:25:17.103Z,95050.00
2023-05-05T02:26:17.152Z,95046.00
2023-05-05T02:27:17.182Z,95044.00
2023-05-05T02:28:17.206Z,95048.00
2023-05-05T02:29:17.307Z,95050.00
2023-05-05T02:30:17.283Z,95050.00
2023-05-05T02:31:17.422Z,95052.00
2023-05-05T02:32:17.365Z,95048.00
2023-05-05T02:33:17.436Z,95050.00
2023-05-05T02:34:17.455Z,95050.00
2023-05-05T02:35:17.491Z,95048.00
2023-05-05T02:36:17.477Z,95048.00
2023-05-05T02:37:17.511Z,95042.00
2023-05-05T02:38:17.596Z,95048.00
2023-05-05T02:39:17.546Z,95044.00
2023-05-05T02:40:17.512Z,95048.00
2023-05-05T02:41:17.545Z,95046.00
2023-05-05T02:42:17.554Z,95048.00
2023-05-05T02:43:17.666Z,95048.00
2023-05-05T02:44:17.572Z,95046.00
2023-05-05T02:45:17.628Z,95046.00
2023-05-05T02:46:17.787Z,95046.00
2023-05-05T02:47:17.697Z,95046.00
2023-05-05T02:48:17.706Z,95046.00
2023-05-05T02:49:17.715Z,95046.00
2023-05-05T02:50:17.732Z,95042.00
2023-05-05T02:51:18.123Z,95042.00
2023-05-05T02:52:17.778Z,95042.00
2023-05-05T02:53:17.813Z,95042.00
2023-05-05T02:54:17.788Z,95042.00
2023-05-05T02:55:17.845Z,95044.00
2023-05-05T02:56:17.859Z,95040.00
2023-05-05T02:57:17.924Z,95038.00
2023-05-05T02:58:17.949Z,95042.00
2023-05-05T02:59:17.959Z,95044.00
2023-05-05T03:00:17.990Z,95044.00
2023-05-05T03:01:18.073Z,95046.00
2023-05-05T03:02:18.068Z,95046.00
2023-05-05T03:03:18.221Z,95044.00
2023-05-05T03:04:18.167Z,95048.00
2023-05-05T03:05:18.177Z,95048.00
2023-05-05T03:06:18.202Z,95046.00
2023-05-05T03:07:18.214Z,95046.00
2023-05-05T03:08:18.229Z,95048.00
2023-05-05T03:09:18.295Z,95050.00
2023-05-05T03:10:18.309Z,95050.00
2023-05-05T03:11:18.289Z,95050.00
2023-05-05T03:12:18.360Z,95050.00
2023-05-05T03:13:18.421Z,95048.00
2023-05-05T03:14:18.500Z,95046.00
2023-05-05T03:15:18.512Z,95048.00
2023-05-05T03:16:18.594Z,95050.00
2023-05-05T03:17:18.545Z,95050.00
2023-05-05T03:18:18.576Z,95054.00
2023-05-05T03:19:18.597Z,95054.00
2023-05-05T03:20:18.675Z,95054.00
2023-05-05T03:21:18.673Z,95058.00
2023-05-05T03:22:18.742Z,95056.00
2023-05-05T03:23:18.756Z,95056.00
2023-05-05T03:24:18.783Z,95058.00
2023-05-05T03:25:18.812Z,95058.00
2023-05-05T03:26:18.882Z,95062.00
2023-05-05T03:27:18.883Z,95058.00
2023-05-05T03:28:18.921Z,95060.00
2023-05-05T03:29:18.936Z,95058.00
2023-05-05T03:30:18.991Z,95056.00
2023-05-05T03:31:19.070Z,95056.00
2023-05-05T03:32:19.035Z,95056.00
2023-05-05T03:33:19.046Z,95052.00
2023-05-05T03:34:19.073Z,95058.00
2023-05-05T03:35:19.109Z,95054.00
2023-05-05T03:36:19.179Z,95050.00
2023-05-05T03:37:19.172Z,95048.00
2023-05-05T03:38:19.244Z,95050.00
2023-05-05T03:39:19.339Z,95048.00
2023-05-05T03:40:19.441Z,95048.00
2023-05-05T03:41:19.454Z,95048.00
2023-05-05T03:42:19.386Z,95050.00
2023-05-05T03:43:19.383Z,95050.00
2023-05-05T03:44:19.401Z,95048.00
2023-05-05T03:45:19.417Z,95048.00
2023-05-05T03:46:19.484Z,95048.00
2023-05-05T03:47:19.504Z,95050.00
2023-05-05T03:48:19.478Z,95052.00
2023-05-05T03:49:19.685Z,95050.00
2023-05-05T03:50:19.572Z,95048.00
2023-05-05T03:51:20.156Z,95048.00
2023-05-05T03:52:19.658Z,95048.00
2023-05-05T03:53:19.702Z,95046.00
2023-05-05T03:54:19.759Z,95048.00
2023-05-05T03:55:19.757Z,95044.00
2023-05-05T03:56:19.794Z,95044.00
2023-05-05T03:57:19.850Z,95046.00
2023-05-05T03:58:19.895Z,95048.00
2023-05-05T03:59:19.910Z,95046.00
2023-05-05T04:00:19.909Z,95046.00
2023-05-05T04:01:19.974Z,95046.00
2023-05-05T04:02:20.077Z,95044.00
2023-05-05T04:03:20.147Z,95048.00
2023-05-05T04:04:20.119Z,95044.00
2023-05-05T04:05:20.154Z,95048.00
2023-05-05T04:06:20.183Z,95044.00
2023-05-05T04:07:20.192Z,95044.00
2023-05-05T04:08:20.269Z,95046.00
2023-05-05T04:09:20.295Z,95046.00
2023-05-05T04:10:20.371Z,95048.00
2023-05-05T04:11:20.396Z,95048.00
2023-05-05T04:12:20.402Z,95044.00
2023-05-05T04:13:20.392Z,95046.00
2023-05-05T04:14:20.406Z,95042.00
2023-05-05T04:15:20.413Z,95044.00
2023-05-05T04:16:20.492Z,95044.00
2023-05-05T04:17:20.498Z,95042.00
2023-05-05T04:18:20.540Z,95044.00
2023-05-05T04:19:20.544Z,95042.00
2023-05-05T04:20:20.604Z,95042.00
2023-05-05T04:21:20.673Z,95046.00
2023-05-05T04:22:20.668Z,95046.00
2023-05-05T04:23:20.705Z,95046.00
2023-05-05T04:24:20.718Z,95050.00
2023-05-05T04:25:20.730Z,95048.00
2023-05-05T04:26:20.760Z,95050.00
2023-05-05T04:27:20.786Z,95048.00
2023-05-05T04:28:21.749Z,95050.00
2023-05-05T04:29:20.823Z,95052.00
2023-05-05T04:30:20.889Z,95054.00
2023-05-05T04:31:21.015Z,95058.00
2023-05-05T04:32:21.002Z,95056.00
2023-05-05T04:33:21.048Z,95058.00
2023-05-05T04:34:21.066Z,95058.00
2023-05-05T04:35:21.078Z,95064.00
2023-05-05T04:36:21.127Z,95062.00
2023-05-05T04:37:21.172Z,95062.00
2023-05-05T04:38:21.286Z,95058.00
2023-05-05T04:39:21.256Z,95060.00
2023-05-05T04:40:21.252Z,95060.00
2023-05-05T04:41:21.293Z,95062.00
2023-05-05T04:42:21.366Z,95064.00
2023-05-05T04:43:21.362Z,95060.00
2023-05-05T04:44:21.398Z,95064.00
2023-05-05T04:45:21.426Z,95064.00
2023-05-05T04:46:21.744Z,95066.00
2023-05-05T04:47:21.509Z,95068.00
2023-05-05T04:48:21.529Z,95070.00
2023-05-05T04:49:22.173Z,95070.00
2023-05-05T04:50:21.619Z,95066.00
2023-05-05T04:51:21.643Z,95068.00
2023-05-05T04:52:21.663Z,95068.00
2023-05-05T04:53:21.687Z,95068.00
2023-05-05T04:54:21.700Z,95072.00
2023-05-05T04:55:21.714Z,95074.00
2023-05-05T04:56:21.820Z,95076.00
2023-05-05T04:57:21.827Z,95078.00
2023-05-05T04:58:21.797Z,95080.00
2023-05-05T04:59:21.833Z,95082.00
2023-05-05T05:00:21.932Z,95084.00
2023-05-05T05:01:22.060Z,95080.00
2023-05-05T05:02:22.107Z,95080.00
2023-05-05T05:03:22.140Z,95080.00
2023-05-05T05:04:22.080Z,95078.00
2023-05-05T05:05:22.108Z,95078.00
2023-05-05T05:06:22.154Z,95078.00
2023-05-05T05:07:22.187Z,95080.00
2023-05-05T05:08:22.716Z,95078.00
2023-05-05T05:09:23.217Z,95080.00
2023-05-05T05:10:22.292Z,95086.00
2023-05-05T05:11:22.338Z,95084.00
2023-05-05T05:12:22.338Z,95082.00
2023-05-05T05:13:22.812Z,95082.00
2023-05-05T05:14:22.428Z,95082.00
2023-05-05T05:15:22.438Z,95082.00
2023-05-05T05:16:23.248Z,95082.00
2023-05-05T05:17:22.582Z,95084.00
2023-05-05T05:18:22.560Z,95086.00
2023-05-05T05:19:22.569Z,95086.00
2023-05-05T05:20:22.634Z,95088.00
2023-05-05T05:21:22.694Z,95086.00
2023-05-05T05:22:22.772Z,95084.00
2023-05-05T05:23:22.707Z,95082.00
2023-05-05T05:24:22.761Z,95084.00
2023-05-05T05:25:22.800Z,95088.00
2023-05-05T05:26:22.803Z,95086.00
2023-05-05T05:27:22.875Z,95084.00
2023-05-05T05:28:22.891Z,95086.00
2023-05-05T05:29:22.910Z,95086.00
2023-05-05T05:30:22.934Z,95088.00
2023-05-05T05:31:23.033Z,95089.00
2023-05-05T05:32:22.987Z,95086.00
2023-05-05T05:33:23.137Z,95089.00
2023-05-05T05:34:23.090Z,95086.00
2023-05-05T05:35:23.030Z,95086.00
2023-05-05T05:36:23.216Z,95089.00
2023-05-05T05:37:23.071Z,95089.00
2023-05-05T05:38:23.091Z,95088.00
2023-05-05T05:39:23.112Z,95088.00
2023-05-05T05:40:23.731Z,95086.00
2023-05-05T05:41:23.204Z,95086.00
2023-05-05T05:42:23.212Z,95089.00
2023-05-05T05:43:23.275Z,95082.00
2023-05-05T05:44:23.395Z,95086.00
2023-05-05T05:45:23.370Z,95084.00
2023-05-05T05:46:23.347Z,95080.00
2023-05-05T05:47:23.382Z,95080.00
2023-05-05T05:48:23.317Z,95080.00
2023-05-05T05:49:23.389Z,95076.00
2023-05-05T05:50:23.381Z,95076.00
2023-05-05T05:51:23.462Z,95078.00
2023-05-05T05:52:23.447Z,95078.00
2023-05-05T05:53:23.492Z,95080.00
2023-05-05T05:54:23.545Z,95082.00
2023-05-05T05:55:23.543Z,95080.00
2023-05-05T05:56:23.612Z,95080.00
2023-05-05T05:57:23.589Z,95080.00
2023-05-05T05:58:23.604Z,95080.00
2023-05-05T05:59:23.648Z,95080.00
2023-05-05T06:00:23.692Z,95080.00
2023-05-05T06:01:23.713Z,95082.00
2023-05-05T06:02:23.719Z,95082.00
2023-05-05T06:03:23.893Z,95084.00
2023-05-05T06:04:23.848Z,95082.00
2023-05-05T06:05:23.839Z,95080.00
2023-05-05T06:06:24.218Z,95080.00
2023-05-05T06:07:23.970Z,95076.00
2023-05-05T06:08:25.686Z,95078.00
2023-05-05T06:09:24.017Z,95084.00
2023-05-05T06:10:27.770Z,95078.00
2023-05-05T06:11:24.128Z,95082.00
2023-05-05T06:12:24.033Z,95086.00
2023-05-05T06:13:23.994Z,95084.00
2023-05-05T06:14:24.020Z,95084.00
2023-05-05T06:15:24.020Z,95080.00
2023-05-05T06:16:24.104Z,95082.00
2023-05-05T06:17:23.972Z,95084.00
2023-05-05T06:18:24.288Z,95082.00
2023-05-05T06:19:24.368Z,95074.00
2023-05-05T06:20:23.970Z,95080.00
2023-05-05T06:21:24.817Z,95078.00
2023-05-05T06:22:24.046Z,95076.00
2023-05-05T06:23:23.942Z,95078.00
2023-05-05T06:24:23.946Z,95076.00
2023-05-05T06:25:23.966Z,95080.00
2023-05-05T06:26:23.939Z,95074.00
2023-05-05T06:27:23.933Z,95074.00
2023-05-05T06:28:24.388Z,95076.00
2023-05-05T06:29:23.922Z,95070.00
2023-05-05T06:30:23.893Z,95070.00
2023-05-05T06:31:23.925Z,95066.00
2023-05-05T06:32:24.014Z,95066.00
2023-05-05T06:33:23.869Z,95064.00
2023-05-05T06:34:23.879Z,95058.00
2023-05-05T06:35:23.852Z,95060.00
2023-05-05T06:36:24.050Z,95056.00
2023-05-05T06:37:24.799Z,95062.00
2023-05-05T06:38:24.711Z,95068.00
2023-05-05T06:39:23.866Z,95062.00
2023-05-05T06:40:23.921Z,95064.00
2023-05-05T06:41:23.805Z,95064.00
2023-05-05T06:42:23.831Z,95062.00
2023-05-05T06:43:24.750Z,95072.00
2023-05-05T06:44:23.798Z,95066.00
2023-05-05T06:45:23.780Z,95066.00
2023-05-05T06:46:23.826Z,95058.00
2023-05-05T06:47:24.247Z,95058.00
2023-05-05T06:48:23.776Z,95054.00
2023-05-05T06:49:23.868Z,95056.00
2023-05-05T06:50:23.972Z,95054.00
2023-05-05T06:51:23.937Z,95054.00
2023-05-05T06:52:24.064Z,95054.00
2023-05-05T06:53:24.095Z,95056.00
2023-05-05T06:54:24.091Z,95054.00
2023-05-05T06:55:24.167Z,95058.00
2023-05-05T06:56:24.192Z,95054.00
2023-05-05T06:57:24.263Z,95050.00
2023-05-05T06:58:24.272Z,95050.00
2023-05-05T06:59:24.300Z,95052.00
2023-05-05T07:00:24.408Z,95056.00
2023-05-05T07:01:24.638Z,95054.00
2023-05-05T07:02:26.662Z,95048.00
2023-05-05T07:03:24.601Z,95052.00
2023-05-05T07:04:24.657Z,95048.00
2023-05-05T07:05:24.675Z,95040.00
2023-05-05T07:06:25.245Z,95042.00
2023-05-05T07:07:24.861Z,95042.00
2023-05-05T07:08:25.133Z,95046.00
2023-05-05T07:09:24.904Z,95038.00
2023-05-05T07:10:24.907Z,95038.00
2023-05-05T07:11:24.978Z,95036.00
2023-05-05T07:12:25.044Z,95040.00
2023-05-05T07:13:25.069Z,95042.00
2023-05-05T07:14:25.087Z,95040.00
2023-05-05T07:15:29.112Z,95042.00
2023-05-05T07:16:25.229Z,95042.00
2023-05-05T07:17:25.273Z,95040.00
2023-05-05T07:18:25.120Z,95040.00
2023-05-05T07:19:25.231Z,95038.00
2023-05-05T07:20:25.211Z,95034.00
2023-05-05T07:21:25.114Z,95036.00
2023-05-05T07:22:25.133Z,95034.00
2023-05-05T07:23:25.103Z,95036.00
2023-05-05T07:24:25.068Z,95031.00
2023-05-05T07:25:25.065Z,95033.00
2023-05-05T07:26:25.109Z,95029.00
2023-05-05T07:27:25.080Z,95029.00
2023-05-05T07:28:25.094Z,95027.00
2023-05-05T07:29:25.208Z,95025.00
2023-05-05T07:30:25.530Z,95023.00
2023-05-05T07:31:25.158Z,95025.00
2023-05-05T07:32:25.118Z,95021.00
2023-05-05T07:33:25.036Z,95017.00
2023-05-05T07:34:25.255Z,95021.00
2023-05-05T07:35:25.793Z,95023.00
2023-05-05T07:36:25.089Z,95019.00
2023-05-05T07:37:25.018Z,95015.00
2023-05-05T07:38:25.087Z,95013.00
2023-05-05T07:39:25.038Z,95011.00
2023-05-05T07:40:25.043Z,95011.00
2023-05-05T07:41:25.099Z,95011.00
2023-05-05T07:42:25.149Z,95009.00
2023-05-05T07:43:25.216Z,95005.00
2023-05-05T07:44:25.225Z,95007.00
2023-05-05T07:45:25.362Z,95001.00
2023-05-05T07:46:25.413Z,94997.00
2023-05-05T07:47:25.335Z,94999.00
2023-05-05T07:48:25.483Z,94999.00
2023-05-05T07:49:25.374Z,94993.00
2023-05-05T07:50:26.246Z,94995.00
2023-05-05T07:51:25.402Z,94995.00
2023-05-05T07:52:43.708Z,94997.00
2023-05-05T07:53:27.395Z,94987.00
2023-05-05T07:54:25.417Z,94987.00
2023-05-05T07:55:25.388Z,94993.00
2023-05-05T07:56:25.407Z,94991.00
2023-05-05T07:57:25.735Z,94991.00
2023-05-05T07:58:25.397Z,94991.00
2023-05-05T07:59:25.462Z,94986.00
2023-05-05T08:00:25.447Z,94989.00
2023-05-05T08:01:25.407Z,94987.00
2023-05-05T08:02:25.499Z,94991.00
2023-05-05T08:03:25.663Z,94984.00
2023-05-05T08:04:25.537Z,94987.00
2023-05-05T08:05:25.588Z,94986.00
2023-05-05T08:06:25.506Z,94986.00
2023-05-05T08:07:25.518Z,94984.00
2023-05-05T08:08:25.532Z,94987.00
2023-05-05T08:09:25.603Z,94982.00
2023-05-05T08:10:25.628Z,94980.00
2023-05-05T08:11:26.800Z,94980.00
2023-05-05T08:12:25.810Z,94980.00
2023-05-05T08:13:25.924Z,94980.00
2023-05-05T08:14:25.796Z,94976.00
2023-05-05T08:15:26.031Z,94978.00
2023-05-05T08:16:26.000Z,94972.00
2023-05-05T08:17:25.972Z,94972.00
2023-05-05T08:18:26.130Z,94972.00
2023-05-05T08:19:29.292Z,94970.00
2023-05-05T08:20:26.794Z,94968.00
2023-05-05T08:21:26.789Z,94966.00
2023-05-05T08:22:26.066Z,94964.00
2023-05-05T08:23:26.037Z,94964.00
2023-05-05T08:24:25.972Z,94960.00
2023-05-05T08:25:26.033Z,94960.00
2023-05-05T08:26:26.633Z,94958.00
2023-05-05T08:27:26.249Z,94954.00
2023-05-05T08:28:25.961Z,94956.00
2023-05-05T08:29:26.929Z,94950.00
2023-05-05T08:30:25.959Z,94952.00
2023-05-05T08:31:26.021Z,94946.00
2023-05-05T08:32:27.253Z,94946.00
2023-05-05T08:33:25.992Z,94946.00
2023-05-05T08:34:26.139Z,94946.00
2023-05-05T08:35:26.119Z,94944.00
2023-05-05T08:36:26.157Z,94937.00
2023-05-05T08:37:26.282Z,94939.00
2023-05-05T08:38:26.204Z,94937.00
2023-05-05T08:39:26.272Z,94935.00
2023-05-05T08:40:26.337Z,94939.00
2023-05-05T08:41:26.371Z,94935.00
2023-05-05T08:42:37.066Z,94933.00
2023-05-05T08:43:27.395Z,94929.00
2023-05-05T08:44:27.441Z,94931.00
2023-05-05T08:45:26.384Z,94929.00
2023-05-05T08:46:26.366Z,94925.00
2023-05-05T08:47:26.383Z,94921.00
2023-05-05T08:48:26.382Z,94923.00
2023-05-05T08:49:26.348Z,94917.00
2023-05-05T08:50:26.366Z,94917.00
2023-05-05T08:51:26.404Z,94913.00
2023-05-05T08:52:26.468Z,94913.00
2023-05-05T08:53:26.368Z,94913.00
2023-05-05T08:54:26.364Z,94913.00
2023-05-05T08:55:26.464Z,94913.00
2023-05-05T08:56:26.372Z,94913.00
2023-05-05T08:57:26.404Z,94911.00
2023-05-05T08:58:28.786Z,94909.00
2023-05-05T08:59:26.643Z,94909.00
2023-05-05T09:00:26.714Z,94909.00
2023-05-05T09:01:26.732Z,94907.00
2023-05-05T09:02:26.892Z,94913.00
2023-05-05T09:03:26.831Z,94907.00
2023-05-05T09:04:26.892Z,94907.00
2023-05-05T09:05:26.887Z,94905.00
2023-05-05T09:06:26.894Z,94907.00
2023-05-05T09:07:26.913Z,94907.00
2023-05-05T09:08:26.962Z,94905.00
2023-05-05T09:09:26.938Z,94901.00
2023-05-05T09:10:27.923Z,94899.00
2023-05-05T09:11:27.061Z,94903.00
2023-05-05T09:12:27.301Z,94899.00
2023-05-05T09:13:27.216Z,94897.00
2023-05-05T09:14:27.285Z,94897.00
2023-05-05T09:15:27.230Z,94893.00
2023-05-05T09:16:27.277Z,94884.00
2023-05-05T09:17:27.475Z,94886.00
2023-05-05T09:18:27.359Z,94884.00
2023-05-05T09:19:27.759Z,94884.00
2023-05-05T09:20:27.376Z,94884.00
2023-05-05T09:21:27.487Z,94880.00
2023-05-05T09:22:27.430Z,94880.00
2023-05-05T09:23:27.408Z,94878.00
2023-05-05T09:24:27.487Z,94878.00
2023-05-05T09:25:27.503Z,94878.00
2023-05-05T09:26:27.519Z,94880.00
2023-05-05T09:27:27.580Z,94872.00
2023-05-05T09:28:27.532Z,94872.00
2023-05-05T09:29:27.570Z,94870.00
2023-05-05T09:30:27.586Z,94872.00
2023-05-05T09:31:27.715Z,94866.00
2023-05-05T09:32:29.202Z,94870.00
2023-05-05T09:33:27.746Z,94862.00
2023-05-05T09:34:27.759Z,94864.00
2023-05-05T09:35:27.701Z,94860.00
2023-05-05T09:36:27.631Z,94860.00
2023-05-05T09:37:27.643Z,94858.00
2023-05-05T09:38:32.295Z,94854.00
2023-05-05T09:39:27.631Z,94852.00
2023-05-05T09:40:27.794Z,94848.00
2023-05-05T09:41:27.664Z,94848.00
2023-05-05T09:42:27.604Z,94848.00
2023-05-05T09:43:27.624Z,94842.00
2023-05-05T09:44:27.793Z,94840.00
2023-05-05T09:45:27.856Z,94846.00
2023-05-05T09:46:28.347Z,94844.00
2023-05-05T09:47:29.843Z,94842.00
2023-05-05T09:48:30.051Z,94839.00
2023-05-05T09:49:27.844Z,94839.00
2023-05-05T09:50:27.873Z,94837.00
2023-05-05T09:51:27.907Z,94831.00
2023-05-05T09:52:27.975Z,94835.00
2023-05-05T09:53:28.301Z,94831.00
2023-05-05T09:54:28.134Z,94827.00
2023-05-05T09:55:28.120Z,94825.00
2023-05-05T09:56:28.124Z,94829.00
2023-05-05T09:57:28.303Z,94825.00
2023-05-05T09:58:28.281Z,94823.00
2023-05-05T09:59:28.173Z,94821.00
2023-05-05T10:00:28.201Z,94821.00
2023-05-05T10:01:28.304Z,94819.00
2023-05-05T10:02:28.325Z,94819.00
2023-05-05T10:03:28.362Z,94817.00
2023-05-05T10:04:29.544Z,94821.00
2023-05-05T10:05:28.567Z,94817.00
2023-05-05T10:06:28.442Z,94817.00
2023-05-05T10:07:28.423Z,94813.00
2023-05-05T10:08:28.449Z,94817.00
2023-05-05T10:09:28.492Z,94811.00
2023-05-05T10:10:29.079Z,94809.00
2023-05-05T10:11:28.500Z,94807.00
2023-05-05T10:12:28.849Z,94809.00
2023-05-05T10:13:28.746Z,94807.00
2023-05-05T10:14:28.582Z,94805.00
2023-05-05T10:15:28.606Z,94803.00
2023-05-05T10:16:29.152Z,94805.00
2023-05-05T10:17:28.635Z,94805.00
2023-05-05T10:18:28.740Z,94801.00
2023-05-05T10:19:28.786Z,94801.00
2023-05-05T10:20:28.767Z,94795.00
2023-05-05T10:21:28.905Z,94799.00
2023-05-05T10:22:28.859Z,94795.00
2023-05-05T10:23:29.802Z,94793.00
2023-05-05T10:24:29.820Z,94797.00
2023-05-05T10:25:28.986Z,94797.00
2023-05-05T10:26:28.961Z,94792.00
2023-05-05T10:27:29.208Z,94793.00
2023-05-05T10:28:29.813Z,94790.00
2023-05-05T10:29:29.042Z,94786.00
2023-05-05T10:30:29.252Z,94786.00
2023-05-05T10:31:29.174Z,94782.00
2023-05-05T10:32:53.504Z,94780.00
2023-05-05T10:33:32.256Z,94782.00
2023-05-05T10:34:29.570Z,94778.00
2023-05-05T10:35:29.137Z,94774.00
2023-05-05T10:36:29.194Z,94772.00
2023-05-05T10:37:29.142Z,94774.00
2023-05-05T10:38:29.134Z,94770.00
2023-05-05T10:39:29.126Z,94768.00
2023-05-05T10:40:29.106Z,94768.00
2023-05-05T10:41:29.078Z,94762.00
2023-05-05T10:42:29.080Z,94758.00
2023-05-05T10:43:29.314Z,94760.00
2023-05-05T10:44:29.351Z,94756.00
2023-05-05T10:45:29.178Z,94756.00
2023-05-05T10:46:29.097Z,94752.00
2023-05-05T10:47:29.854Z,94754.00
2023-05-05T10:48:29.856Z,94750.00
2023-05-05T10:49:29.320Z,94750.00
2023-05-05T10:50:29.186Z,94748.00
2023-05-05T10:51:39.209Z,94746.00
2023-05-05T10:52:30.015Z,94746.00
2023-05-05T10:53:29.029Z,94746.00
2023-05-05T10:54:29.032Z,94740.00
2023-05-05T10:55:29.019Z,94740.00
2023-05-05T10:56:29.004Z,94737.00
2023-05-05T10:57:29.013Z,94735.00
2023-05-05T10:58:28.996Z,94729.00
2023-05-05T10:59:29.003Z,94729.00
2023-05-05T11:00:29.147Z,94725.00
2023-05-05T11:01:29.112Z,94727.00
2023-05-05T11:02:29.003Z,94727.00
2023-05-05T11:03:29.025Z,94719.00
2023-05-05T11:04:29.007Z,94719.00
2023-05-05T11:05:28.974Z,94717.00
2023-05-05T11:06:29.024Z,94717.00
2023-05-05T11:07:29.055Z,94713.00
2023-05-05T11:08:29.084Z,94711.00
2023-05-05T11:09:29.154Z,94709.00
2023-05-05T11:10:29.265Z,94705.00
2023-05-05T11:11:29.231Z,94699.00
2023-05-05T11:12:29.324Z,94695.00
2023-05-05T11:13:29.573Z,94699.00
2023-05-05T11:14:29.804Z,94695.00
2023-05-05T11:15:29.315Z,94691.00
2023-05-05T11:16:29.533Z,94690.00
2023-05-05T11:17:29.570Z,94690.00
2023-05-05T11:18:29.352Z,94688.00
2023-05-05T11:19:29.438Z,94684.00
2023-05-05T11:20:29.476Z,94686.00
2023-05-05T11:21:29.584Z,94682.00
2023-05-05T11:22:29.616Z,94680.00
2023-05-05T11:23:29.822Z,94678.00
2023-05-05T11:24:29.728Z,94672.00
2023-05-05T11:25:29.712Z,94674.00
2023-05-05T11:26:29.766Z,94672.00
2023-05-05T11:27:29.835Z,94670.00
2023-05-05T11:28:29.946Z,94672.00
2023-05-05T11:29:29.897Z,94668.00
2023-05-05T11:30:29.958Z,94666.00
2023-05-05T11:31:30.039Z,94664.00
2023-05-05T11:32:30.142Z,94664.00
2023-05-05T11:33:30.088Z,94660.00
2023-05-05T11:34:30.242Z,94660.00
2023-05-05T11:35:30.147Z,94658.00
2023-05-05T11:36:30.159Z,94658.00
2023-05-05T11:37:30.242Z,94656.00
2023-05-05T11:38:30.267Z,94652.00
2023-05-05T11:39:30.321Z,94652.00
2023-05-05T11:40:30.446Z,94650.00
2023-05-05T11:41:30.388Z,94648.00
2023-05-05T11:42:30.502Z,94646.00
2023-05-05T11:43:30.501Z,94643.00
2023-05-05T11:44:30.489Z,94641.00